首页
METAR-TAF:

METAR-TAF

机场 :

Mason Jewett Field

梅森, 密歇根州, 美国

纬度: 42-33-57N, 经度: 084-25-24W, 海拔: 280米

当前天气观测

该预报发布于14分钟前的22:35 UTC
风速6节,风向西北,有时为15节阵风
温度 28°C
湿度 42%
气压 1018 hPa
能見度: 16.1公里
天空无云

METAR: KTEW 262235Z AUTO 31006G15KT 10SM CLR 28/14 A3007 RMK AO2 T02840137

时间: 18:49 (22:49 UTC)


TAF: 丢失

超过4000个机场的气象观测和天气预报(METAR&TAF报告)。

可查询的气象台以黄色和红色小点在地图上表示。

将鼠标移到小点上方,可查看气象台名称。

然后点击查看天气观测和预报。

如需切换地图:点击带黑十字的绿色按钮放大地图;点击带横线的绿色按钮缩小地图;或者点击绿色箭头查看邻近地区的地图。


METAR-TAF: